sensor_id;sensor_type;location;lat;lon;timestamp;pressure;altitude;pressure_sealevel;temperature;humidity
76024;BME280;64719;52.124;6.226;2022-11-15T00:01:50;100997.13;;;6.68;99.66
76024;BME280;64719;52.124;6.226;2022-11-15T00:04:16;100990.06;;;6.67;99.74
76024;BME280;64719;52.124;6.226;2022-11-15T00:06:43;100994.03;;;6.71;99.47
76024;BME280;64719;52.124;6.226;2022-11-15T00:09:11;100987.59;;;6.72;99.66
76024;BME280;64719;52.124;6.226;2022-11-15T00:11:37;100989.88;;;6.75;99.48
76024;BME280;64719;52.124;6.226;2022-11-15T00:14:04;100992.38;;;6.77;99.86
76024;BME280;64719;52.124;6.226;2022-11-15T00:16:30;100976.81;;;6.79;99.68
76024;BME280;64719;52.124;6.226;2022-11-15T00:18:57;100988.03;;;6.89;99.76
76024;BME280;64719;52.124;6.226;2022-11-15T00:21:23;100996.34;;;6.87;99.96
76024;BME280;64719;52.124;6.226;2022-11-15T00:23:50;100995.72;;;6.92;99.88
76024;BME280;64719;52.124;6.226;2022-11-15T00:26:18;100994.50;;;6.94;100.00
76024;BME280;64719;52.124;6.226;2022-11-15T00:28:44;100993.28;;;7.03;100.00
76024;BME280;64719;52.124;6.226;2022-11-15T00:31:12;100989.97;;;7.08;100.00
76024;BME280;64719;52.124;6.226;2022-11-15T00:33:39;100983.31;;;7.10;100.00
76024;BME280;64719;52.124;6.226;2022-11-15T00:36:08;100978.97;;;7.09;100.00
76024;BME280;64719;52.124;6.226;2022-11-15T00:38:37;100979.38;;;7.06;100.00
76024;BME280;64719;52.124;6.226;2022-11-15T00:41:05;100972.72;;;7.09;100.00
76024;BME280;64719;52.124;6.226;2022-11-15T00:43:33;100972.31;;;7.12;100.00
76024;BME280;64719;52.124;6.226;2022-11-15T00:46:00;100972.31;;;7.12;100.00
76024;BME280;64719;52.124;6.226;2022-11-15T00:48:27;100972.94;;;7.14;100.00
76024;BME280;64719;52.124;6.226;2022-11-15T00:50:54;100970.44;;;7.12;100.00
76024;BME280;64719;52.124;6.226;2022-11-15T00:53:20;100965.66;;;7.14;100.00
76024;BME280;64719;52.124;6.226;2022-11-15T00:55:47;100970.84;;;7.16;100.00
76024;BME280;64719;52.124;6.226;2022-11-15T00:58:14;100971.91;;;7.21;100.00
76024;BME280;64719;52.124;6.226;2022-11-15T01:00:41;100960.91;;;7.23;100.00
76024;BME280;64719;52.124;6.226;2022-11-15T01:03:08;100964.22;;;7.25;100.00
76024;BME280;64719;52.124;6.226;2022-11-15T01:05:37;100956.75;;;7.33;100.00
76024;BME280;64719;52.124;6.226;2022-11-15T01:08:04;100956.13;;;7.38;100.00
76024;BME280;64719;52.124;6.226;2022-11-15T01:10:30;100953.22;;;7.33;100.00
76024;BME280;64719;52.124;6.226;2022-11-15T01:12:57;100957.56;;;7.34;100.00
76024;BME280;64719;52.124;6.226;2022-11-15T01:15:23;100953.66;;;7.36;100.00
76024;BME280;64719;52.124;6.226;2022-11-15T01:17:51;100950.53;;;7.39;100.00
76024;BME280;64719;52.124;6.226;2022-11-15T01:20:18;100952.81;;;7.36;100.00
76024;BME280;64719;52.124;6.226;2022-11-15T01:22:45;100944.28;;;7.39;100.00
76024;BME280;64719;52.124;6.226;2022-11-15T01:25:11;100936.41;;;7.37;100.00
76024;BME280;64719;52.124;6.226;2022-11-15T01:27:38;100940.97;;;7.37;100.00
76024;BME280;64719;52.124;6.226;2022-11-15T01:30:06;100935.16;;;7.40;100.00
76024;BME280;64719;52.124;6.226;2022-11-15T01:32:33;100937.63;;;7.41;100.00
76024;BME280;64719;52.124;6.226;2022-11-15T01:35:01;100936.63;;;7.42;100.00
76024;BME280;64719;52.124;6.226;2022-11-15T01:37:27;100938.25;;;7.43;100.00
76024;BME280;64719;52.124;6.226;2022-11-15T01:39:54;100936.19;;;7.45;100.00
76024;BME280;64719;52.124;6.226;2022-11-15T01:42:20;100935.78;;;7.48;100.00
76024;BME280;64719;52.124;6.226;2022-11-15T01:44:48;100921.03;;;7.51;100.00
76024;BME280;64719;52.124;6.226;2022-11-15T01:47:16;100930.78;;;7.52;100.00
76024;BME280;64719;52.124;6.226;2022-11-15T01:49:50;100922.25;;;7.55;100.00
76024;BME280;64719;52.124;6.226;2022-11-15T01:52:22;100919.16;;;7.52;100.00
76024;BME280;64719;52.124;6.226;2022-11-15T01:54:53;100913.56;;;7.53;100.00
76024;BME280;64719;52.124;6.226;2022-11-15T01:57:21;100902.34;;;7.56;100.00
76024;BME280;64719;52.124;6.226;2022-11-15T01:59:48;100913.31;;;7.61;100.00
76024;BME280;64719;52.124;6.226;2022-11-15T02:02:15;100917.91;;;7.61;100.00
76024;BME280;64719;52.124;6.226;2022-11-15T02:04:42;100911.22;;;7.63;100.00
76024;BME280;64719;52.124;6.226;2022-11-15T02:07:11;100907.28;;;7.66;100.00
76024;BME280;64719;52.124;6.226;2022-11-15T02:09:41;100916.63;;;7.76;100.00
76024;BME280;64719;52.124;6.226;2022-11-15T02:12:09;100912.66;;;7.79;100.00
76024;BME280;64719;52.124;6.226;2022-11-15T02:14:38;100911.41;;;7.81;100.00
76024;BME280;64719;52.124;6.226;2022-11-15T02:17:17;100913.28;;;7.81;100.00
76024;BME280;64719;52.124;6.226;2022-11-15T02:20:16;100908.06;;;7.86;100.00
76024;BME280;64719;52.124;6.226;2022-11-15T02:23:06;100908.91;;;7.86;100.00
76024;BME280;64719;52.124;6.226;2022-11-15T02:25:41;100902.66;;;7.86;100.00
76024;BME280;64719;52.124;6.226;2022-11-15T02:28:40;100901.22;;;7.90;100.00
76024;BME280;64719;52.124;6.226;2022-11-15T02:31:14;100898.09;;;7.93;100.00
76024;BME280;64719;52.124;6.226;2022-11-15T02:33:52;100903.28;;;7.94;100.00
76024;BME280;64719;52.124;6.226;2022-11-15T02:36:28;100901.16;;;7.96;100.00
76024;BME280;64719;52.124;6.226;2022-11-15T02:39:04;100898.03;;;7.99;100.00
76024;BME280;64719;52.124;6.226;2022-11-15T02:41:37;100904.47;;;8.05;100.00
76024;BME280;64719;52.124;6.226;2022-11-15T02:44:09;100898.88;;;8.06;100.00
76024;BME280;64719;52.124;6.226;2022-11-15T02:46:40;100891.34;;;8.08;100.00
76024;BME280;64719;52.124;6.226;2022-11-15T02:49:29;100894.88;;;8.15;100.00
76024;BME280;64719;52.124;6.226;2022-11-15T02:51:57;100886.78;;;8.15;100.00
76024;BME280;64719;52.124;6.226;2022-11-15T02:54:26;100887.19;;;8.12;100.00
76024;BME280;64719;52.124;6.226;2022-11-15T02:56:55;100889.25;;;8.17;100.00
76024;BME280;64719;52.124;6.226;2022-11-15T02:59:38;100881.78;;;8.12;100.00
76024;BME280;64719;52.124;6.226;2022-11-15T03:02:18;100874.69;;;8.18;100.00
76024;BME280;64719;52.124;6.226;2022-11-15T03:04:53;100866.81;;;8.23;100.00
76024;BME280;64719;52.124;6.226;2022-11-15T03:07:25;100861.41;;;8.23;100.00
76024;BME280;64719;52.124;6.226;2022-11-15T03:10:00;100862.81;;;8.25;100.00
76024;BME280;64719;52.124;6.226;2022-11-15T03:12:35;100863.63;;;8.32;100.00
76024;BME280;64719;52.124;6.226;2022-11-15T03:15:07;100855.72;;;8.31;100.00
76024;BME280;64719;52.124;6.226;2022-11-15T03:17:41;100848.44;;;8.31;100.00
76024;BME280;64719;52.124;6.226;2022-11-15T03:20:11;100849.06;;;8.33;100.00
76024;BME280;64719;52.124;6.226;2022-11-15T03:22:42;100852.56;;;8.40;100.00
76024;BME280;64719;52.124;6.226;2022-11-15T03:25:13;100852.56;;;8.40;100.00
76024;BME280;64719;52.124;6.226;2022-11-15T03:27:46;100850.25;;;8.44;100.00
76024;BME280;64719;52.124;6.226;2022-11-15T03:30:14;100854.19;;;8.41;100.00
76024;BME280;64719;52.124;6.226;2022-11-15T03:32:47;100852.97;;;8.44;100.00
76024;BME280;64719;52.124;6.226;2022-11-15T03:35:17;100843.16;;;8.43;100.00
76024;BME280;64719;52.124;6.226;2022-11-15T03:37:49;100840.66;;;8.48;100.00
76024;BME280;64719;52.124;6.226;2022-11-15T03:40:22;100838.13;;;8.53;100.00
76024;BME280;64719;52.124;6.226;2022-11-15T03:42:59;100839.34;;;8.57;100.00
76024;BME280;64719;52.124;6.226;2022-11-15T03:45:31;100833.53;;;8.53;100.00
76024;BME280;64719;52.124;6.226;2022-11-15T03:48:04;100837.06;;;8.54;100.00
76024;BME280;64719;52.124;6.226;2022-11-15T03:50:33;100843.66;;;8.64;100.00
76024;BME280;64719;52.124;6.226;2022-11-15T03:53:00;100840.94;;;8.64;100.00
76024;BME280;64719;52.124;6.226;2022-11-15T03:55:27;100840.06;;;8.70;100.00
76024;BME280;64719;52.124;6.226;2022-11-15T03:57:56;100843.53;;;8.77;100.00
76024;BME280;64719;52.124;6.226;2022-11-15T04:00:24;100842.94;;;8.75;100.00
76024;BME280;64719;52.124;6.226;2022-11-15T04:02:51;100841.22;;;8.81;100.00
76024;BME280;64719;52.124;6.226;2022-11-15T04:05:19;100843.91;;;8.87;100.00
76024;BME280;64719;52.124;6.226;2022-11-15T04:07:45;100834.97;;;8.80;100.00
76024;BME280;64719;52.124;6.226;2022-11-15T04:10:12;100838.09;;;8.84;100.00
76024;BME280;64719;52.124;6.226;2022-11-15T04:12:40;100847.63;;;8.86;100.00
76024;BME280;64719;52.124;6.226;2022-11-15T04:15:11;100844.66;;;8.94;100.00
76024;BME280;64719;52.124;6.226;2022-11-15T04:17:40;100844.22;;;8.97;100.00
76024;BME280;64719;52.124;6.226;2022-11-15T04:20:09;100847.75;;;8.98;100.00
76024;BME280;64719;52.124;6.226;2022-11-15T04:22:55;100841.28;;;8.99;100.00
76024;BME280;64719;52.124;6.226;2022-11-15T04:25:40;100846.25;;;9.02;100.00
76024;BME280;64719;52.124;6.226;2022-11-15T04:28:07;100849.13;;;9.07;100.00
76024;BME280;64719;52.124;6.226;2022-11-15T04:30:34;100848.91;;;9.08;100.00
76024;BME280;64719;52.124;6.226;2022-11-15T04:33:00;100849.53;;;9.10;100.00
76024;BME280;64719;52.124;6.226;2022-11-15T04:35:27;100847.19;;;9.14;100.00
76024;BME280;64719;52.124;6.226;2022-11-15T04:37:55;100852.78;;;9.19;100.00
76024;BME280;64719;52.124;6.226;2022-11-15T04:40:21;100856.31;;;9.19;100.00
76024;BME280;64719;52.124;6.226;2022-11-15T04:42:47;100853.75;;;9.24;100.00
76024;BME280;64719;52.124;6.226;2022-11-15T04:45:14;100852.88;;;9.30;100.00
76024;BME280;64719;52.124;6.226;2022-11-15T04:47:43;100846.88;;;9.28;100.00
76024;BME280;64719;52.124;6.226;2022-11-15T04:50:11;100848.97;;;9.26;100.00
76024;BME280;64719;52.124;6.226;2022-11-15T04:52:38;100847.00;;;9.33;100.00
76024;BME280;64719;52.124;6.226;2022-11-15T04:55:07;100842.81;;;9.38;100.00
76024;BME280;64719;52.124;6.226;2022-11-15T04:57:33;100843.13;;;9.48;100.00
76024;BME280;64719;52.124;6.226;2022-11-15T04:59:59;100846.88;;;9.47;100.00
76024;BME280;64719;52.124;6.226;2022-11-15T05:02:26;100845.44;;;9.44;100.00
76024;BME280;64719;52.124;6.226;2022-11-15T05:05:13;100846.44;;;9.50;100.00
76024;BME280;64719;52.124;6.226;2022-11-15T05:07:39;100842.72;;;9.44;100.00
76024;BME280;64719;52.124;6.226;2022-11-15T05:10:07;100843.72;;;9.50;100.00
76024;BME280;64719;52.124;6.226;2022-11-15T05:12:34;100846.78;;;9.53;100.00
76024;BME280;64719;52.124;6.226;2022-11-15T05:15:00;100844.97;;;9.47;100.00
76024;BME280;64719;52.124;6.226;2022-11-15T05:17:27;100843.41;;;9.58;100.00
76024;BME280;64719;52.124;6.226;2022-11-15T05:19:54;100849.66;;;9.58;100.00
76024;BME280;64719;52.124;6.226;2022-11-15T05:22:21;100842.38;;;9.59;100.00
76024;BME280;64719;52.124;6.226;2022-11-15T05:24:48;100838.38;;;9.61;100.00
76024;BME280;64719;52.124;6.226;2022-11-15T05:27:15;100843.41;;;9.58;100.00
76024;BME280;64719;52.124;6.226;2022-11-15T05:29:42;100848.03;;;9.57;100.00
76024;BME280;64719;52.124;6.226;2022-11-15T05:32:09;100842.97;;;9.61;100.00
76024;BME280;64719;52.124;6.226;2022-11-15T05:34:37;100835.66;;;9.61;100.00
76024;BME280;64719;52.124;6.226;2022-11-15T05:37:04;100845.09;;;9.59;100.00
76024;BME280;64719;52.124;6.226;2022-11-15T05:39:31;100837.09;;;9.64;100.00
76024;BME280;64719;52.124;6.226;2022-11-15T05:42:01;100837.53;;;9.79;100.00
76024;BME280;64719;52.124;6.226;2022-11-15T05:44:32;100836.13;;;9.76;100.00
76024;BME280;64719;52.124;6.226;2022-11-15T05:47:00;100843.88;;;9.73;100.00
76024;BME280;64719;52.124;6.226;2022-11-15T05:49:31;100834.38;;;9.82;100.00
76024;BME280;64719;52.124;6.226;2022-11-15T05:52:00;100830.88;;;9.81;100.00
76024;BME280;64719;52.124;6.226;2022-11-15T05:54:27;100837.78;;;9.77;100.00
76024;BME280;64719;52.124;6.226;2022-11-15T05:56:53;100829.56;;;9.84;100.00
76024;BME280;64719;52.124;6.226;2022-11-15T05:59:21;100842.66;;;9.87;100.00
76024;BME280;64719;52.124;6.226;2022-11-15T06:01:49;100841.59;;;9.88;100.00
76024;BME280;64719;52.124;6.226;2022-11-15T06:04:15;100847.25;;;9.86;100.00
76024;BME280;64719;52.124;6.226;2022-11-15T06:06:42;100848.16;;;9.80;100.00
76024;BME280;64719;52.124;6.226;2022-11-15T06:09:08;100853.72;;;9.85;100.00
76024;BME280;64719;52.124;6.226;2022-11-15T06:11:35;100846.72;;;9.78;100.00
76024;BME280;64719;52.124;6.226;2022-11-15T06:14:02;100850.28;;;9.78;100.00
76024;BME280;64719;52.124;6.226;2022-11-15T06:16:28;100848.16;;;9.80;100.00
76024;BME280;64719;52.124;6.226;2022-11-15T06:18:56;100858.53;;;9.83;100.00
76024;BME280;64719;52.124;6.226;2022-11-15T06:21:23;100861.19;;;9.90;100.00
76024;BME280;64719;52.124;6.226;2022-11-15T06:23:49;100861.63;;;9.87;100.00
76024;BME280;64719;52.124;6.226;2022-11-15T06:26:16;100856.22;;;9.87;100.00
76024;BME280;64719;52.124;6.226;2022-11-15T06:28:42;100860.28;;;9.96;100.00
76024;BME280;64719;52.124;6.226;2022-11-15T06:31:10;100854.25;;;9.94;100.00
76024;BME280;64719;52.124;6.226;2022-11-15T06:33:37;100855.75;;;9.90;100.00
76024;BME280;64719;52.124;6.226;2022-11-15T06:36:07;100861.41;;;9.88;100.00
76024;BME280;64719;52.124;6.226;2022-11-15T06:38:34;100859.75;;;9.87;100.00
76024;BME280;64719;52.124;6.226;2022-11-15T06:41:02;100857.41;;;9.91;100.00
76024;BME280;64719;52.124;6.226;2022-11-15T06:43:29;100864.84;;;9.95;100.00
76024;BME280;64719;52.124;6.226;2022-11-15T06:45:55;100864.97;;;10.07;100.00
76024;BME280;64719;52.124;6.226;2022-11-15T06:48:22;100868.50;;;10.07;100.00
76024;BME280;64719;52.124;6.226;2022-11-15T06:50:50;100875.13;;;10.11;100.00
76024;BME280;64719;52.124;6.226;2022-11-15T06:53:18;100871.19;;;10.07;100.00
76024;BME280;64719;52.124;6.226;2022-11-15T06:55:45;100871.19;;;10.07;100.00
76024;BME280;64719;52.124;6.226;2022-11-15T06:58:11;100873.84;;;10.14;100.00
76024;BME280;64719;52.124;6.226;2022-11-15T07:00:38;100876.16;;;10.10;100.00
76024;BME280;64719;52.124;6.226;2022-11-15T07:03:04;100877.66;;;10.06;100.00
76024;BME280;64719;52.124;6.226;2022-11-15T07:05:31;100879.53;;;10.06;100.00
76024;BME280;64719;52.124;6.226;2022-11-15T07:07:58;100875.59;;;10.08;100.00
76024;BME280;64719;52.124;6.226;2022-11-15T07:10:27;100886.22;;;10.10;100.00
76024;BME280;64719;52.124;6.226;2022-11-15T07:12:54;100887.56;;;10.19;100.00
76024;BME280;64719;52.124;6.226;2022-11-15T07:15:24;100881.91;;;10.20;100.00
76024;BME280;64719;52.124;6.226;2022-11-15T07:17:51;100884.63;;;10.20;100.00
76024;BME280;64719;52.124;6.226;2022-11-15T07:20:18;100880.91;;;10.15;100.00
76024;BME280;64719;52.124;6.226;2022-11-15T07:22:45;100875.19;;;10.23;100.00
76024;BME280;64719;52.124;6.226;2022-11-15T07:25:11;100874.50;;;10.27;100.00
76024;BME280;64719;52.124;6.226;2022-11-15T07:27:39;100876.19;;;10.28;100.00
76024;BME280;64719;52.124;6.226;2022-11-15T07:30:07;100889.59;;;10.23;100.00
76024;BME280;64719;52.124;6.226;2022-11-15T07:32:34;100886.25;;;10.21;100.00
76024;BME280;64719;52.124;6.226;2022-11-15T07:35:00;100889.50;;;10.30;100.00
76024;BME280;64719;52.124;6.226;2022-11-15T07:37:27;100900.47;;;10.35;100.00
76024;BME280;64719;52.124;6.226;2022-11-15T07:39:53;100896.13;;;10.34;100.00
76024;BME280;64719;52.124;6.226;2022-11-15T07:42:20;100902.00;;;10.31;100.00
76024;BME280;64719;52.124;6.226;2022-11-15T07:45:06;100903.19;;;10.35;100.00
76024;BME280;64719;52.124;6.226;2022-11-15T07:47:32;100896.97;;;10.34;100.00
76024;BME280;64719;52.124;6.226;2022-11-15T07:49:59;100901.31;;;10.35;100.00
76024;BME280;64719;52.124;6.226;2022-11-15T07:52:25;100904.41;;;10.39;100.00
76024;BME280;64719;52.124;6.226;2022-11-15T07:54:52;100905.09;;;10.34;100.00
76024;BME280;64719;52.124;6.226;2022-11-15T07:57:18;100899.44;;;10.36;100.00
76024;BME280;64719;52.124;6.226;2022-11-15T07:59:45;100909.44;;;10.35;100.00
76024;BME280;64719;52.124;6.226;2022-11-15T08:02:13;100910.28;;;10.36;100.00
76024;BME280;64719;52.124;6.226;2022-11-15T08:04:41;100910.28;;;10.36;100.00
76024;BME280;64719;52.124;6.226;2022-11-15T08:07:09;100905.81;;;10.41;100.00
76024;BME280;64719;52.124;6.226;2022-11-15T08:09:35;100910.63;;;10.39;100.00
76024;BME280;64719;52.124;6.226;2022-11-15T08:12:01;100905.66;;;10.36;100.00
76024;BME280;64719;52.124;6.226;2022-11-15T08:14:28;100907.94;;;10.39;100.00
76024;BME280;64719;52.124;6.226;2022-11-15T08:16:55;100909.38;;;10.42;100.00
76024;BME280;64719;52.124;6.226;2022-11-15T08:19:23;100909.94;;;10.44;100.00
76024;BME280;64719;52.124;6.226;2022-11-15T08:21:49;100906.47;;;10.55;100.00
76024;BME280;64719;52.124;6.226;2022-11-15T08:24:16;100901.59;;;10.75;100.00
76024;BME280;64719;52.124;6.226;2022-11-15T08:26:42;100895.59;;;10.84;100.00
76024;BME280;64719;52.124;6.226;2022-11-15T08:29:09;100899.28;;;10.90;100.00
76024;BME280;64719;52.124;6.226;2022-11-15T08:31:35;100899.53;;;11.11;100.00
76024;BME280;64719;52.124;6.226;2022-11-15T08:34:03;100897.78;;;11.17;100.00
76024;BME280;64719;52.124;6.226;2022-11-15T08:36:31;100896.56;;;11.01;100.00
76024;BME280;64719;52.124;6.226;2022-11-15T08:38:58;100898.91;;;10.98;100.00
76024;BME280;64719;52.124;6.226;2022-11-15T08:41:27;100898.47;;;11.01;100.00
76024;BME280;64719;52.124;6.226;2022-11-15T08:43:54;100894.19;;;10.93;100.00
76024;BME280;64719;52.124;6.226;2022-11-15T08:46:21;100889.72;;;10.99;100.00
76024;BME280;64719;52.124;6.226;2022-11-15T08:48:48;100883.59;;;11.03;100.00
76024;BME280;64719;52.124;6.226;2022-11-15T08:51:14;100892.47;;;11.22;100.00
76024;BME280;64719;52.124;6.226;2022-11-15T08:53:43;100883.75;;;11.20;100.00
76024;BME280;64719;52.124;6.226;2022-11-15T08:56:11;100884.69;;;11.26;100.00
76024;BME280;64719;52.124;6.226;2022-11-15T08:58:38;100878.78;;;11.29;100.00
76024;BME280;64719;52.124;6.226;2022-11-15T09:01:05;100878.22;;;11.38;100.00
76024;BME280;64719;52.124;6.226;2022-11-15T09:03:31;100888.13;;;11.44;99.42
76024;BME280;64719;52.124;6.226;2022-11-15T09:05:59;100878.56;;;11.53;98.96
76024;BME280;64719;52.124;6.226;2022-11-15T09:08:28;100888.63;;;11.64;98.38
76024;BME280;64719;52.124;6.226;2022-11-15T09:10:57;100884.00;;;11.65;98.50
76024;BME280;64719;52.124;6.226;2022-11-15T09:13:23;100875.59;;;11.55;98.45
76024;BME280;64719;52.124;6.226;2022-11-15T09:15:50;100877.81;;;11.46;98.60
76024;BME280;64719;52.124;6.226;2022-11-15T09:18:16;100881.16;;;11.37;98.64
76024;BME280;64719;52.124;6.226;2022-11-15T09:20:43;100876.06;;;11.29;98.19
76024;BME280;64719;52.124;6.226;2022-11-15T09:23:09;100873.34;;;11.29;98.35
76024;BME280;64719;52.124;6.226;2022-11-15T09:25:36;100882.69;;;11.44;97.88
76024;BME280;64719;52.124;6.226;2022-11-15T09:28:07;100882.97;;;11.66;97.21
76024;BME280;64719;52.124;6.226;2022-11-15T09:30:34;100882.81;;;11.84;95.94
76024;BME280;64719;52.124;6.226;2022-11-15T09:33:06;100870.75;;;11.91;96.38
76024;BME280;64719;52.124;6.226;2022-11-15T09:35:33;100885.28;;;11.74;96.11
76024;BME280;64719;52.124;6.226;2022-11-15T09:37:59;100875.13;;;11.69;96.59
76024;BME280;64719;52.124;6.226;2022-11-15T09:40:26;100872.38;;;11.92;95.61
76024;BME280;64719;52.124;6.226;2022-11-15T09:43:05;100880.81;;;12.19;94.80
76024;BME280;64719;52.124;6.226;2022-11-15T09:45:53;100876.28;;;12.36;93.18
76024;BME280;64719;52.124;6.226;2022-11-15T09:48:48;100872.72;;;12.35;93.57
76024;BME280;64719;52.124;6.226;2022-11-15T09:51:24;100860.81;;;12.25;93.01
76024;BME280;64719;52.124;6.226;2022-11-15T09:53:57;100865.94;;;12.10;93.40
76024;BME280;64719;52.124;6.226;2022-11-15T09:56:27;100868.34;;;12.06;93.67
76024;BME280;64719;52.124;6.226;2022-11-15T09:59:03;100861.63;;;12.98;91.14
76024;BME280;64719;52.124;6.226;2022-11-15T10:01:40;100865.59;;;14.16;86.87
76024;BME280;64719;52.124;6.226;2022-11-15T10:04:08;100864.88;;;14.04;86.73
76024;BME280;64719;52.124;6.226;2022-11-15T10:06:38;100857.00;;;15.82;83.30
76024;BME280;64719;52.124;6.226;2022-11-15T10:09:11;100857.56;;;14.26;83.77
76024;BME280;64719;52.124;6.226;2022-11-15T10:11:39;100855.91;;;13.66;87.08
76024;BME280;64719;52.124;6.226;2022-11-15T10:14:09;100844.94;;;13.06;90.08
76024;BME280;64719;52.124;6.226;2022-11-15T10:17:00;100844.78;;;12.84;90.18
76024;BME280;64719;52.124;6.226;2022-11-15T10:19:35;100840.63;;;12.65;89.72
76024;BME280;64719;52.124;6.226;2022-11-15T10:22:16;100836.75;;;12.61;90.55
76024;BME280;64719;52.124;6.226;2022-11-15T10:24:45;100834.84;;;13.07;90.20
76024;BME280;64719;52.124;6.226;2022-11-15T10:27:14;100831.75;;;13.53;87.76
76024;BME280;64719;52.124;6.226;2022-11-15T10:29:43;100823.00;;;14.37;85.11
76024;BME280;64719;52.124;6.226;2022-11-15T10:32:12;100824.72;;;15.38;80.10
76024;BME280;64719;52.124;6.226;2022-11-15T10:34:39;100820.66;;;14.02;84.73
76024;BME280;64719;52.124;6.226;2022-11-15T10:37:06;100819.69;;;14.35;85.77
76024;BME280;64719;52.124;6.226;2022-11-15T10:39:32;100813.16;;;14.36;84.78
76024;BME280;64719;52.124;6.226;2022-11-15T10:42:15;100818.88;;;13.91;84.86
76024;BME280;64719;52.124;6.226;2022-11-15T10:44:43;100814.31;;;13.75;86.14
76024;BME280;64719;52.124;6.226;2022-11-15T10:47:26;100822.69;;;13.31;87.64
76024;BME280;64719;52.124;6.226;2022-11-15T10:49:56;100817.44;;;13.46;87.99
76024;BME280;64719;52.124;6.226;2022-11-15T10:52:23;100820.69;;;13.26;88.47
76024;BME280;64719;52.124;6.226;2022-11-15T10:54:52;100817.66;;;13.39;86.71
76024;BME280;64719;52.124;6.226;2022-11-15T10:57:23;100811.63;;;13.80;85.72
76024;BME280;64719;52.124;6.226;2022-11-15T10:59:53;100805.44;;;13.63;87.40
76024;BME280;64719;52.124;6.226;2022-11-15T11:02:30;100800.09;;;13.73;84.83
76024;BME280;64719;52.124;6.226;2022-11-15T11:04:57;100800.28;;;13.88;83.56
76024;BME280;64719;52.124;6.226;2022-11-15T11:07:26;100799.22;;;13.68;84.67
76024;BME280;64719;52.124;6.226;2022-11-15T11:10:02;100800.09;;;13.73;87.82
76024;BME280;64719;52.124;6.226;2022-11-15T11:12:31;100784.44;;;13.85;83.76
76024;BME280;64719;52.124;6.226;2022-11-15T11:14:59;100774.66;;;13.46;82.61
76024;BME280;64719;52.124;6.226;2022-11-15T11:17:35;100768.91;;;13.64;81.35
76024;BME280;64719;52.124;6.226;2022-11-15T11:20:11;100761.41;;;13.33;83.35
76024;BME280;64719;52.124;6.226;2022-11-15T11:22:50;100758.63;;;13.50;82.50
76024;BME280;64719;52.124;6.226;2022-11-15T11:25:28;100766.38;;;13.79;82.58
76024;BME280;64719;52.124;6.226;2022-11-15T11:28:05;100762.63;;;13.42;84.07
76024;BME280;64719;52.124;6.226;2022-11-15T11:30:47;100765.41;;;13.47;84.99
76024;BME280;64719;52.124;6.226;2022-11-15T11:33:20;100766.44;;;13.25;83.36
76024;BME280;64719;52.124;6.226;2022-11-15T11:35:55;100768.19;;;12.98;82.58
76024;BME280;64719;52.124;6.226;2022-11-15T11:38:43;100767.81;;;13.06;84.64
76024;BME280;64719;52.124;6.226;2022-11-15T11:41:22;100756.06;;;12.88;84.01
76024;BME280;64719;52.124;6.226;2022-11-15T11:43:58;100749.28;;;12.74;85.02
76024;BME280;64719;52.124;6.226;2022-11-15T11:46:38;100737.25;;;12.54;83.48
76024;BME280;64719;52.124;6.226;2022-11-15T11:49:16;100752.69;;;12.65;83.01
76024;BME280;64719;52.124;6.226;2022-11-15T11:51:49;100750.28;;;12.52;83.02
76024;BME280;64719;52.124;6.226;2022-11-15T11:54:20;100750.47;;;12.45;82.63
76024;BME280;64719;52.124;6.226;2022-11-15T11:56:50;100748.75;;;12.56;82.97
76024;BME280;64719;52.124;6.226;2022-11-15T11:59:23;100754.00;;;12.62;84.80
76024;BME280;64719;52.124;6.226;2022-11-15T12:01:52;100740.22;;;12.69;82.65
76024;BME280;64719;52.124;6.226;2022-11-15T12:04:23;100758.66;;;12.62;83.07
76024;BME280;64719;52.124;6.226;2022-11-15T12:06:56;100754.34;;;12.66;82.53
76024;BME280;64719;52.124;6.226;2022-11-15T12:09:30;100758.56;;;12.57;78.85
76024;BME280;64719;52.124;6.226;2022-11-15T12:12:04;100753.19;;;12.45;77.35
76024;BME280;64719;52.124;6.226;2022-11-15T12:14:38;100744.75;;;12.30;78.95
76024;BME280;64719;52.124;6.226;2022-11-15T12:17:08;100746.06;;;12.44;77.89
76024;BME280;64719;52.124;6.226;2022-11-15T12:19:37;100737.50;;;12.52;78.47
76024;BME280;64719;52.124;6.226;2022-11-15T12:22:09;100735.19;;;12.77;79.19
76024;BME280;64719;52.124;6.226;2022-11-15T12:24:40;100730.56;;;12.94;78.79
76024;BME280;64719;52.124;6.226;2022-11-15T12:27:15;100726.53;;;12.80;76.81
76024;BME280;64719;52.124;6.226;2022-11-15T12:29:45;100724.06;;;13.34;75.48
76024;BME280;64719;52.124;6.226;2022-11-15T12:32:21;100701.81;;;13.63;73.44
76024;BME280;64719;52.124;6.226;2022-11-15T12:34:52;100697.06;;;13.75;70.67
76024;BME280;64719;52.124;6.226;2022-11-15T12:37:48;100694.72;;;14.74;70.86
76024;BME280;64719;52.124;6.226;2022-11-15T12:40:27;100690.38;;;14.78;69.31
76024;BME280;64719;52.124;6.226;2022-11-15T12:45:51;100682.31;;;13.76;73.03
76024;BME280;64719;52.124;6.226;2022-11-15T12:54:58;100648.50;;;14.30;69.86
76024;BME280;64719;52.124;6.226;2022-11-15T12:57:42;100657.81;;;14.08;69.07
76024;BME280;64719;52.124;6.226;2022-11-15T13:00:42;100656.69;;;14.67;65.96
76024;BME280;64719;52.124;6.226;2022-11-15T13:03:18;100649.56;;;14.61;67.16
76024;BME280;64719;52.124;6.226;2022-11-15T13:06:09;100639.34;;;14.88;65.43
76024;BME280;64719;52.124;6.226;2022-11-15T13:08:56;100628.38;;;14.83;65.25
76024;BME280;64719;52.124;6.226;2022-11-15T13:11:43;100631.63;;;14.75;65.70
76024;BME280;64719;52.124;6.226;2022-11-15T13:14:39;100618.31;;;14.94;64.79